Briefing drone pour Palaja

Rechercher une autre localisation

Conditions de vol :


Nous sommes le : Jeudi 24 juin 2021
Il est 23:14 UTC (01:14 LT)

Lever de soleil : 03:45 UTC (05:45 LT)
Coucher de soleil : 20:00 UTC (22:00 LT)

Météo

L'essentiel des conditions de vol

VIGILANCE MÉTÉO FRANCE - Aude (11)
Vigilance Jaune : Orages
CARTE TEMSI
CARTES DES FRONTS
METAR de LFMK
LFMK 232300Z AUTO 27005KT 9999 SCT016 BKN022 OVC029 15/14 Q1021

Date d'émission: 23/06/2021
Heure d'émission: 23:00 UTC
Vent: 270° pour 5 KT (9 km/h)
Visibilité horizontale: > 10 km
Plafond :
- Nuages épars à 1600ft (488m)
- Nuages morcelés à 2200ft (671m)
- Couvert à 2900ft (884m)
Température: 15 °C
Point de rosée: 14 °C
Humidité: 94%
Pression (QNH): 1021 hPa
TAF de LFMK
LFMK 231801Z 2318/2415 CNL= LFOH 231800Z 2318/2412 CNL

Conditions prévues :

Heure d'émission : Bulletin éffectué le 23 à 18:00 UTC
Prévision : Valide du 23 a 18:00 UTC au 24 a 12:00 UTC
Nuages : à 0ft (0 m)
à 0ft (0 m)
à 0ft (0 m)
à 0ft (0 m)
WEBCAM POUR PALAJA

Réglementation

Voler en sécurité

CARTES AERONAUTIQUE 1/500.000
CARTES VAC (LFMK)
SUP AIP




Chargement des AIP...
NOTAM (PALAJA + Terrain à proximité / FIR )




Chargement des NOTAMS...
CONTACT PREFECTURE 11


Avertissement : Les données mises à disposition sont indicatives. Oxygène Drone ne pourra être tenu responsable de dégâts causés aux biens et aux personnes.